createdAt,value
2022-10-17T00:00:00.602Z,4.00
2022-10-17T00:02:27.206Z,4.30
2022-10-17T00:04:53.716Z,4.00
2022-10-17T00:07:20.239Z,4.00
2022-10-17T00:09:46.733Z,4.80
2022-10-17T00:12:13.215Z,3.83
2022-10-17T00:14:39.713Z,4.07
2022-10-17T00:17:06.265Z,4.50
2022-10-17T00:19:32.754Z,3.90
2022-10-17T00:21:59.239Z,4.00
2022-10-17T00:24:25.879Z,3.80
2022-10-17T00:26:52.353Z,4.57
2022-10-17T00:29:18.832Z,4.27
2022-10-17T00:31:45.323Z,4.20
2022-10-17T00:34:11.756Z,4.83
2022-10-17T00:36:38.377Z,4.73
2022-10-17T00:39:04.921Z,5.10
2022-10-17T00:41:32.998Z,3.90
2022-10-17T00:44:01.125Z,3.37
2022-10-17T00:46:36.571Z,4.07
2022-10-17T00:49:07.071Z,4.60
2022-10-17T00:51:40.967Z,4.30
2022-10-17T00:54:07.854Z,5.13
2022-10-17T00:56:34.786Z,5.10
2022-10-17T00:59:01.385Z,4.43
2022-10-17T01:01:28.118Z,4.30
2022-10-17T01:03:54.608Z,4.33
2022-10-17T01:06:21.041Z,4.10
2022-10-17T01:08:47.553Z,3.83
2022-10-17T01:11:44.199Z,3.80
2022-10-17T01:14:28.455Z,4.17
2022-10-17T01:17:33.881Z,4.87
2022-10-17T01:20:18.800Z,5.37
2022-10-17T01:22:50.379Z,4.13
2022-10-17T01:25:29.023Z,3.63
2022-10-17T01:28:33.606Z,3.73
2022-10-17T01:31:03.021Z,3.57
2022-10-17T01:33:38.881Z,4.13
2022-10-17T01:36:20.415Z,4.20
2022-10-17T01:38:53.843Z,4.07
2022-10-17T01:41:27.437Z,3.93
2022-10-17T01:43:58.296Z,4.40
2022-10-17T01:46:37.759Z,3.90
2022-10-17T01:49:06.554Z,4.70
2022-10-17T01:51:44.399Z,4.17
2022-10-17T01:54:22.759Z,4.53
2022-10-17T01:56:52.890Z,4.50
2022-10-17T01:59:46.598Z,4.37
2022-10-17T02:02:14.595Z,4.00
2022-10-17T02:04:42.187Z,4.73
2022-10-17T02:07:09.923Z,3.93
2022-10-17T02:09:36.536Z,4.57
2022-10-17T02:12:21.131Z,4.97
2022-10-17T02:15:29.249Z,3.90
2022-10-17T02:18:07.968Z,3.53
2022-10-17T02:20:53.860Z,4.40
2022-10-17T02:23:27.767Z,4.03
2022-10-17T02:25:58.977Z,4.07
2022-10-17T02:29:03.836Z,4.03
2022-10-17T02:31:44.090Z,4.83
2022-10-17T02:34:26.907Z,4.47
2022-10-17T02:36:57.372Z,3.97
2022-10-17T02:39:25.813Z,4.13
2022-10-17T02:41:52.934Z,4.90
2022-10-17T02:44:20.409Z,4.60
2022-10-17T02:46:53.350Z,4.80
2022-10-17T02:49:28.937Z,4.30
2022-10-17T02:52:24.951Z,4.20
2022-10-17T02:55:00.705Z,3.60
2022-10-17T02:57:39.661Z,4.20
2022-10-17T03:00:09.493Z,4.17
2022-10-17T03:02:52.998Z,4.70
2022-10-17T03:05:25.323Z,4.20
2022-10-17T03:07:53.228Z,3.87
2022-10-17T03:10:20.070Z,4.10
2022-10-17T03:12:46.530Z,4.33
2022-10-17T03:15:13.282Z,4.63
2022-10-17T03:17:39.785Z,4.50
2022-10-17T03:20:07.370Z,4.40
2022-10-17T03:22:34.178Z,4.40
2022-10-17T07:19:01.351Z,4.90
2022-10-17T07:21:28.313Z,5.80
2022-10-17T07:23:55.062Z,4.47
2022-10-17T07:26:21.639Z,4.27
2022-10-17T07:28:52.975Z,5.10
2022-10-17T07:31:21.265Z,4.23
2022-10-17T07:33:48.039Z,4.83
2022-10-17T07:36:15.253Z,5.10
2022-10-17T07:38:42.192Z,4.73
2022-10-17T07:41:09.719Z,4.37
2022-10-17T07:43:36.970Z,4.70
2022-10-17T07:46:05.218Z,4.00
2022-10-17T07:48:31.779Z,4.40
2022-10-17T07:50:58.677Z,4.70
2022-10-17T07:53:25.167Z,4.47
2022-10-17T07:55:51.835Z,4.97
2022-10-17T07:58:18.731Z,4.50
2022-10-17T08:00:48.509Z,4.73
2022-10-17T08:03:15.224Z,5.10
2022-10-17T08:05:41.761Z,4.40
2022-10-17T08:08:08.280Z,4.30
2022-10-17T08:10:34.789Z,3.93
2022-10-17T08:13:01.931Z,4.40
2022-10-17T08:15:31.745Z,5.23
2022-10-17T08:17:59.186Z,4.30
2022-10-17T08:20:25.739Z,4.57
2022-10-17T08:22:53.714Z,3.97
2022-10-17T08:25:20.979Z,5.10
2022-10-17T08:27:48.721Z,5.33
2022-10-17T08:30:15.745Z,5.03
2022-10-17T08:32:42.667Z,4.53
2022-10-17T08:35:09.788Z,5.13
2022-10-17T08:37:36.496Z,5.00
2022-10-17T08:40:03.768Z,4.97
2022-10-17T08:42:39.123Z,5.10
2022-10-17T08:45:27.426Z,4.90
2022-10-17T08:48:06.148Z,4.37
2022-10-17T08:50:40.216Z,5.07
2022-10-17T08:53:20.722Z,4.70
2022-10-17T08:55:52.559Z,4.57
2022-10-17T08:58:22.266Z,5.03
2022-10-17T09:01:01.531Z,4.90
2022-10-17T09:03:45.772Z,4.77
2022-10-17T09:06:24.421Z,4.77
2022-10-17T09:09:29.911Z,4.60
2022-10-17T09:12:17.772Z,4.23
2022-10-17T09:15:15.355Z,4.67
2022-10-17T09:18:22.060Z,4.00
2022-10-17T09:20:52.783Z,5.00
2022-10-17T09:23:28.346Z,4.90
2022-10-17T09:25:57.590Z,4.40
2022-10-17T09:28:27.547Z,5.07
2022-10-17T09:31:01.806Z,4.43
2022-10-17T09:34:00.739Z,4.53
2022-10-17T09:36:30.066Z,4.50
2022-10-17T09:38:59.236Z,4.97
2022-10-17T09:41:45.417Z,5.13
2022-10-17T09:44:15.863Z,4.77
2022-10-17T09:46:46.492Z,5.00
2022-10-17T09:49:18.155Z,4.80
2022-10-17T09:51:44.933Z,4.67
2022-10-17T09:54:40.628Z,4.07
2022-10-17T09:57:09.585Z,4.93
2022-10-17T09:59:38.761Z,5.00
2022-10-17T10:02:13.977Z,4.27
2022-10-17T10:05:06.386Z,4.43
2022-10-17T10:07:36.640Z,4.40
2022-10-17T10:10:05.402Z,4.37
2022-10-17T10:12:34.834Z,5.70
2022-10-17T10:15:01.575Z,4.57
2022-10-17T10:17:35.810Z,4.70
2022-10-17T10:20:06.709Z,3.87
2022-10-17T10:22:33.219Z,4.00
2022-10-17T10:25:18.091Z,5.00
2022-10-17T10:27:45.304Z,4.60
2022-10-17T10:30:25.593Z,4.17
2022-10-17T10:35:37.241Z,4.60
2022-10-17T10:38:10.471Z,4.83
2022-10-17T10:40:45.824Z,4.43
2022-10-17T10:43:23.229Z,4.97
2022-10-17T10:45:50.210Z,3.70
2022-10-17T10:48:32.761Z,5.10
2022-10-17T10:51:02.206Z,5.30
2022-10-17T10:53:46.016Z,5.47
2022-10-17T10:56:19.924Z,5.10
2022-10-17T10:59:07.041Z,4.70
2022-10-17T11:02:08.785Z,4.20
2022-10-17T11:05:07.935Z,4.10
2022-10-17T11:07:46.140Z,4.70
2022-10-17T11:10:26.717Z,4.53
2022-10-17T11:13:14.339Z,4.77
2022-10-17T11:15:56.373Z,3.80
2022-10-17T11:18:29.078Z,4.33
2022-10-17T11:21:00.925Z,5.47
2022-10-17T11:24:06.974Z,4.97
2022-10-17T11:26:41.019Z,4.50
2022-10-17T11:29:12.029Z,5.27
2022-10-17T11:31:43.638Z,4.43
2022-10-17T11:34:27.444Z,5.00
2022-10-17T11:37:00.164Z,5.10
2022-10-17T11:39:48.466Z,5.30
2022-10-17T11:42:25.426Z,4.37
2022-10-17T11:44:56.471Z,4.90
2022-10-17T11:47:37.282Z,5.43
2022-10-17T11:53:28.949Z,5.20
2022-10-17T11:55:58.539Z,5.20
2022-10-17T11:58:35.802Z,5.60
2022-10-17T12:01:42.101Z,5.20
2022-10-17T12:04:20.132Z,4.90
2022-10-17T12:07:05.539Z,4.97
2022-10-17T12:09:43.197Z,4.47
2022-10-17T12:12:09.838Z,4.20
2022-10-17T12:14:37.669Z,5.03
2022-10-17T12:17:06.033Z,5.13
2022-10-17T12:19:34.962Z,4.47
2022-10-17T12:22:12.881Z,3.93
2022-10-17T12:24:44.437Z,4.00
2022-10-17T12:27:32.568Z,3.50
2022-10-17T12:30:20.860Z,4.43
2022-10-17T12:33:05.653Z,3.60
2022-10-17T12:35:35.425Z,5.60
2022-10-17T12:38:18.771Z,5.03
2022-10-17T12:40:49.102Z,4.40
2022-10-17T12:43:15.717Z,4.30
2022-10-17T12:45:58.525Z,3.93
2022-10-17T12:48:34.229Z,4.77
2022-10-17T12:51:30.873Z,4.50
2022-10-17T12:53:58.720Z,3.40
2022-10-17T12:56:38.470Z,4.23
2022-10-17T12:59:15.028Z,3.67
2022-10-17T13:01:44.208Z,3.33
2022-10-17T13:04:11.591Z,3.67
2022-10-17T13:06:47.053Z,3.90
2022-10-17T13:09:31.696Z,3.50
2022-10-17T13:12:01.208Z,3.37
2022-10-17T13:14:28.377Z,3.30
2022-10-17T13:16:58.674Z,3.43
2022-10-17T13:19:29.262Z,3.97
2022-10-17T13:22:06.025Z,4.20
2022-10-17T13:24:38.280Z,4.50
2022-10-17T13:27:07.084Z,4.10
2022-10-17T13:29:33.857Z,3.90
2022-10-17T13:32:03.874Z,4.10
2022-10-17T13:34:31.410Z,4.50
2022-10-17T13:37:04.035Z,4.17
2022-10-17T13:40:00.320Z,4.40
2022-10-17T13:42:31.806Z,4.73
2022-10-17T13:44:59.527Z,3.33
2022-10-17T13:47:28.821Z,3.63
2022-10-17T13:49:56.659Z,4.63
2022-10-17T13:52:28.880Z,7.73
2022-10-17T13:55:07.658Z,4.17
2022-10-17T13:57:34.408Z,4.40
2022-10-17T14:00:09.962Z,4.60
2022-10-17T14:02:38.315Z,4.10
2022-10-17T14:05:17.798Z,3.70
2022-10-17T14:08:10.480Z,3.90
2022-10-17T14:10:39.677Z,3.50
2022-10-17T14:13:10.360Z,4.30
2022-10-17T14:15:37.471Z,4.33
2022-10-17T14:18:08.446Z,4.10
2022-10-17T14:23:38.038Z,4.40
2022-10-17T14:26:16.801Z,4.20
2022-10-17T14:28:45.998Z,3.20
2022-10-17T14:31:25.678Z,3.60
2022-10-17T14:33:54.099Z,3.70
2022-10-17T14:36:29.374Z,4.83
2022-10-17T14:38:55.844Z,3.90
2022-10-17T14:41:42.518Z,3.80
2022-10-17T14:44:18.504Z,4.93
2022-10-17T14:46:49.739Z,4.50
2022-10-17T14:49:24.626Z,5.27
2022-10-17T14:52:25.676Z,3.70
2022-10-17T14:54:52.774Z,5.40
2022-10-17T14:57:41.769Z,4.87
2022-10-17T15:00:14.422Z,16.23
2022-10-17T15:02:41.275Z,16.77
2022-10-17T15:05:12.811Z,18.27
2022-10-17T15:07:40.775Z,9.77
2022-10-17T15:10:07.460Z,10.00
2022-10-17T15:12:34.006Z,7.53
2022-10-17T15:15:00.540Z,12.40
2022-10-17T15:17:30.321Z,20.70
2022-10-17T15:19:57.388Z,16.30
2022-10-17T15:22:24.134Z,11.80
2022-10-17T15:24:50.660Z,5.60
2022-10-17T15:27:19.701Z,4.93
2022-10-17T15:29:46.871Z,5.37
2022-10-17T15:32:13.989Z,5.30
2022-10-17T15:34:40.813Z,5.40
2022-10-17T15:37:17.289Z,4.10
2022-10-17T15:39:45.535Z,5.00
2022-10-17T15:42:12.466Z,4.00
2022-10-17T15:44:40.683Z,4.20
2022-10-17T15:47:12.026Z,4.37
2022-10-17T15:49:38.958Z,5.00
2022-10-17T15:52:06.067Z,4.17
2022-10-17T15:54:32.646Z,4.50
2022-10-17T15:56:59.622Z,4.50
2022-10-17T15:59:35.004Z,5.40
2022-10-17T16:02:01.543Z,6.00
2022-10-17T16:04:29.195Z,4.83
2022-10-17T16:06:55.663Z,4.00
2022-10-17T16:09:22.213Z,5.33
2022-10-17T16:11:48.704Z,3.70
2022-10-17T16:14:16.469Z,4.60
2022-10-17T16:16:43.321Z,4.60
2022-10-17T16:19:09.779Z,5.03
2022-10-17T16:21:38.330Z,4.90
2022-10-17T16:24:05.534Z,4.80
2022-10-17T16:26:32.292Z,4.03
2022-10-17T16:29:02.778Z,4.40
2022-10-17T16:31:33.507Z,4.70
2022-10-17T16:34:01.517Z,4.77
2022-10-17T16:36:28.058Z,4.67
2022-10-17T16:38:54.569Z,5.23
2022-10-17T16:41:31.554Z,5.07
2022-10-17T16:43:59.856Z,5.00
2022-10-17T16:46:28.020Z,5.23
2022-10-17T16:48:55.096Z,4.87
2022-10-17T16:51:21.750Z,4.27
2022-10-17T16:53:50.681Z,5.77
2022-10-17T16:56:19.563Z,5.63
2022-10-17T16:58:46.332Z,4.00
2022-10-17T17:01:19.098Z,5.27
2022-10-17T17:03:47.109Z,4.67
2022-10-17T17:06:26.410Z,4.70
2022-10-17T17:08:53.814Z,5.00
2022-10-17T17:11:21.987Z,4.97
2022-10-17T17:13:48.799Z,4.70
2022-10-17T17:16:18.718Z,4.90
2022-10-17T17:18:46.226Z,5.10
2022-10-17T17:21:13.216Z,4.20
2022-10-17T17:23:41.309Z,6.27
2022-10-17T17:26:19.137Z,5.00
2022-10-17T17:28:46.198Z,5.50
2022-10-17T17:31:33.758Z,5.30
2022-10-17T17:34:00.697Z,5.67
2022-10-17T17:36:35.342Z,5.80
2022-10-17T17:39:04.637Z,6.90
2022-10-17T17:41:32.319Z,6.63
2022-10-17T17:43:59.162Z,6.20
2022-10-17T17:46:25.809Z,4.60
2022-10-17T17:48:54.303Z,4.30
2022-10-17T17:51:26.914Z,4.10
2022-10-17T17:53:56.311Z,3.90
2022-10-17T17:56:25.363Z,4.83
2022-10-17T17:58:59.724Z,4.10
2022-10-17T18:01:29.215Z,5.33
2022-10-17T18:03:58.848Z,3.83
2022-10-17T18:06:26.027Z,4.33
2022-10-17T18:08:55.060Z,5.13
2022-10-17T18:11:22.195Z,4.77
2022-10-17T18:13:53.802Z,4.60
2022-10-17T18:16:20.286Z,4.03
2022-10-17T18:18:46.706Z,5.13
2022-10-17T18:21:13.878Z,4.67
2022-10-17T18:23:41.775Z,4.70
2022-10-17T18:26:08.597Z,4.13
2022-10-17T18:28:36.442Z,6.20
2022-10-17T18:31:07.319Z,5.63
2022-10-17T18:33:34.479Z,5.47
2022-10-17T18:36:07.172Z,5.30
2022-10-17T18:38:33.995Z,4.37
2022-10-17T18:41:20.613Z,5.20
2022-10-17T18:43:47.979Z,5.13
2022-10-17T18:46:16.838Z,4.40
2022-10-17T18:48:44.703Z,4.50
2022-10-17T18:51:12.355Z,4.93
2022-10-17T18:53:40.612Z,5.53
2022-10-17T18:56:07.836Z,5.03
2022-10-17T18:58:34.348Z,5.57
2022-10-17T19:01:05.339Z,4.10
2022-10-17T19:03:32.499Z,5.00
2022-10-17T19:06:03.962Z,5.77
2022-10-17T19:08:30.634Z,5.47
2022-10-17T19:10:57.243Z,5.97
2022-10-17T19:13:23.788Z,5.93
2022-10-17T19:15:51.722Z,5.73
2022-10-17T19:18:18.241Z,6.53
2022-10-17T19:20:45.999Z,5.87
2022-10-17T19:23:12.458Z,5.17
2022-10-17T19:25:39.022Z,5.30
2022-10-17T19:28:05.694Z,4.80
2022-10-17T19:30:32.279Z,5.23
2022-10-17T19:32:58.862Z,5.00
2022-10-17T19:35:25.589Z,5.20
2022-10-17T19:37:52.046Z,5.07
2022-10-17T19:40:18.693Z,5.83
2022-10-17T19:42:46.757Z,5.93
2022-10-17T19:45:13.462Z,5.30
2022-10-17T19:47:40.219Z,5.97
2022-10-17T19:50:07.510Z,8.13
2022-10-17T19:52:34.234Z,5.47
2022-10-17T19:55:00.773Z,5.20
2022-10-17T19:57:27.346Z,5.40
2022-10-17T19:59:55.915Z,5.33
2022-10-17T20:02:22.783Z,5.27
2022-10-17T20:04:54.687Z,5.30
2022-10-17T20:07:26.630Z,6.27
2022-10-17T20:09:53.115Z,5.33
2022-10-17T20:12:19.609Z,6.57
2022-10-17T20:14:46.110Z,5.90
2022-10-17T20:17:12.598Z,6.03
2022-10-17T20:19:39.080Z,5.83
2022-10-17T20:22:05.561Z,5.40
2022-10-17T20:24:32.132Z,6.10
2022-10-17T20:26:59.342Z,5.40
2022-10-17T20:29:27.962Z,6.10
2022-10-17T20:31:54.405Z,5.40
2022-10-17T20:34:20.922Z,5.37
2022-10-17T20:36:47.749Z,6.60
2022-10-17T20:39:15.459Z,6.50
2022-10-17T20:41:42.570Z,6.77
2022-10-17T20:44:09.658Z,5.73
2022-10-17T20:46:44.768Z,5.20
2022-10-17T20:49:18.006Z,5.63
2022-10-17T20:51:44.888Z,6.17
2022-10-17T20:54:12.122Z,5.77
2022-10-17T20:56:39.054Z,5.97
2022-10-17T20:59:08.340Z,6.23
2022-10-17T21:01:35.871Z,5.87
2022-10-17T21:04:27.169Z,7.20
2022-10-17T21:06:51.881Z,6.73
2022-10-17T21:09:18.840Z,5.10
2022-10-17T21:11:45.322Z,5.43
2022-10-17T21:14:12.100Z,5.20
2022-10-17T21:16:39.438Z,5.50
2022-10-17T21:19:06.190Z,4.90
2022-10-17T21:21:34.936Z,4.43
2022-10-17T21:24:07.803Z,4.97
2022-10-17T21:26:36.613Z,6.20
2022-10-17T21:29:05.943Z,5.50
2022-10-17T21:31:34.888Z,5.77
2022-10-17T21:34:05.724Z,5.33
2022-10-17T21:36:32.262Z,4.60
2022-10-17T21:39:01.006Z,4.90
2022-10-17T21:41:28.756Z,5.97
2022-10-17T21:43:56.796Z,5.10
2022-10-17T21:46:24.309Z,5.27
2022-10-17T21:48:53.642Z,5.00
2022-10-17T21:51:24.839Z,5.10
2022-10-17T21:53:53.646Z,5.37
2022-10-17T21:56:22.801Z,4.50
2022-10-17T21:58:50.465Z,4.03
2022-10-17T22:01:22.889Z,5.03
2022-10-17T22:03:51.767Z,4.37
2022-10-17T22:09:09.587Z,4.90
2022-10-17T22:11:36.520Z,4.83
2022-10-17T22:14:10.125Z,5.07
2022-10-17T22:16:38.334Z,4.53
2022-10-17T22:19:06.921Z,5.27
2022-10-17T22:21:35.417Z,5.13
2022-10-17T22:24:05.251Z,5.07
2022-10-17T22:26:33.094Z,4.70
2022-10-17T22:29:03.725Z,5.07
2022-10-17T22:31:30.532Z,5.10
2022-10-17T22:33:57.084Z,5.40
2022-10-17T22:36:23.859Z,5.60
2022-10-17T22:38:50.345Z,4.50
2022-10-17T22:41:16.947Z,4.80
2022-10-17T22:43:43.447Z,4.47
2022-10-17T22:46:12.872Z,4.60
2022-10-17T22:48:39.433Z,4.87
2022-10-17T22:51:06.252Z,3.80
2022-10-17T22:53:32.793Z,6.50
2022-10-17T22:56:02.337Z,5.07
2022-10-17T22:58:30.591Z,4.60
2022-10-17T23:00:59.729Z,5.20
2022-10-17T23:03:27.991Z,4.70
2022-10-17T23:05:54.924Z,4.90
2022-10-17T23:08:21.356Z,4.83
2022-10-17T23:10:48.189Z,5.10
2022-10-17T23:13:15.107Z,4.13
2022-10-17T23:15:42.341Z,4.40
2022-10-17T23:18:09.781Z,4.10
2022-10-17T23:20:37.427Z,4.37
2022-10-17T23:23:04.462Z,4.77
2022-10-17T23:25:33.267Z,5.53
2022-10-17T23:27:59.795Z,4.90
2022-10-17T23:30:26.215Z,3.87
2022-10-17T23:32:53.487Z,4.57
2022-10-17T23:35:20.055Z,4.40
2022-10-17T23:37:46.575Z,4.60
2022-10-17T23:40:13.336Z,4.67
2022-10-17T23:42:44.928Z,4.73
2022-10-17T23:45:11.667Z,4.63
2022-10-17T23:47:38.208Z,4.10
2022-10-17T23:50:05.305Z,5.93
2022-10-17T23:52:32.095Z,4.97
2022-10-17T23:54:58.528Z,4.20
2022-10-17T23:57:25.112Z,4.27
2022-10-17T23:59:51.583Z,4.40
